createdAt,value
2023-05-10T00:01:23.217Z,100979.97
2023-05-10T00:03:50.655Z,100979.81
2023-05-10T00:06:18.110Z,100978.00
2023-05-10T00:08:46.213Z,100967.03
2023-05-10T00:11:13.465Z,100975.94
2023-05-10T00:13:42.378Z,100976.88
2023-05-10T00:16:10.722Z,100973.94
2023-05-10T00:18:39.762Z,100966.34
2023-05-10T00:21:07.061Z,100967.94
2023-05-10T00:23:34.463Z,100966.97
2023-05-10T00:26:01.713Z,100952.72
2023-05-10T00:28:29.031Z,100956.78
2023-05-10T00:30:57.707Z,100953.38
2023-05-10T00:33:24.924Z,100951.31
2023-05-10T00:35:52.218Z,100950.91
2023-05-10T00:38:19.485Z,100950.53
2023-05-10T00:40:46.726Z,100945.91
2023-05-10T00:43:15.002Z,100937.66
2023-05-10T00:45:42.352Z,100934.91
2023-05-10T00:48:11.056Z,100931.50
2023-05-10T00:50:38.317Z,100937.50
2023-05-10T00:53:05.661Z,100925.09
2023-05-10T00:55:33.249Z,100928.34
2023-05-10T00:58:00.794Z,100922.25
2023-05-10T01:00:28.983Z,100927.34
2023-05-10T01:02:56.320Z,100920.28
2023-05-10T01:05:25.712Z,100920.56
2023-05-10T01:07:53.021Z,100916.47
2023-05-10T01:10:21.714Z,100915.31
2023-05-10T01:12:49.241Z,100916.38
2023-05-10T01:15:20.390Z,100912.13
2023-05-10T01:17:49.144Z,100910.56
2023-05-10T01:20:16.926Z,100922.41
2023-05-10T01:23:01.725Z,100911.09
2023-05-10T01:25:45.279Z,100902.13
2023-05-10T01:28:41.019Z,100909.16
2023-05-10T01:31:23.518Z,100910.47
2023-05-10T01:33:56.654Z,100907.34
2023-05-10T01:36:31.874Z,100905.41
2023-05-10T01:39:03.210Z,100905.81
2023-05-10T01:41:40.842Z,100900.31
2023-05-10T01:44:17.624Z,100904.78
2023-05-10T01:46:49.798Z,100894.63
2023-05-10T01:49:24.296Z,100900.78
2023-05-10T01:51:54.489Z,100894.53
2023-05-10T01:54:24.577Z,100901.47
2023-05-10T01:57:02.550Z,100890.44
2023-05-10T01:59:34.808Z,100897.19
2023-05-10T02:02:03.488Z,100885.75
2023-05-10T02:04:35.973Z,100889.59
2023-05-10T02:07:03.486Z,100891.97
2023-05-10T02:09:32.956Z,100896.75
2023-05-10T02:12:02.432Z,100895.25
2023-05-10T02:14:33.220Z,100895.00
2023-05-10T02:17:02.109Z,100887.78
2023-05-10T02:19:31.051Z,100890.00
2023-05-10T02:22:01.016Z,100886.50
2023-05-10T02:24:31.486Z,100886.50
2023-05-10T02:27:00.222Z,100885.59
2023-05-10T02:29:29.350Z,100886.06
2023-05-10T02:31:58.523Z,100884.84
2023-05-10T02:34:27.606Z,100880.06
2023-05-10T02:36:55.785Z,100877.69
2023-05-10T02:39:25.647Z,100881.41
2023-05-10T02:41:54.458Z,100878.91
2023-05-10T02:44:23.558Z,100880.66
2023-05-10T02:46:50.872Z,100878.75
2023-05-10T02:49:19.226Z,100871.13
2023-05-10T02:51:52.376Z,100873.13
2023-05-10T02:54:21.587Z,100878.97
2023-05-10T02:56:57.254Z,100881.09
2023-05-10T02:59:24.796Z,100879.97
2023-05-10T03:01:52.188Z,100880.50
2023-05-10T03:04:19.708Z,100867.19
2023-05-10T03:06:47.198Z,100874.09
2023-05-10T03:09:15.764Z,100866.44
2023-05-10T03:11:55.000Z,100871.31
2023-05-10T03:14:41.076Z,100869.22
2023-05-10T03:17:12.758Z,100871.22
2023-05-10T03:19:48.575Z,100869.69
2023-05-10T03:22:22.696Z,100873.41
2023-05-10T03:24:54.616Z,100867.56
2023-05-10T03:27:24.488Z,100870.06
2023-05-10T03:29:53.500Z,100859.56
2023-05-10T03:32:20.714Z,100866.53
2023-05-10T03:34:47.904Z,100863.19
2023-05-10T03:37:15.169Z,100862.50
2023-05-10T03:39:42.774Z,100857.25
2023-05-10T03:42:10.094Z,100862.69
2023-05-10T03:44:39.090Z,100859.16
2023-05-10T03:47:06.565Z,100867.03
2023-05-10T03:49:33.914Z,100862.34
2023-05-10T03:52:01.107Z,100857.50
2023-05-10T03:54:28.346Z,100858.56
2023-05-10T03:56:55.580Z,100860.22
2023-05-10T03:59:22.733Z,100864.50
2023-05-10T04:01:51.432Z,100865.91
2023-05-10T04:04:18.749Z,100861.97
2023-05-10T04:06:46.015Z,100856.13
2023-05-10T04:09:13.431Z,100855.59
2023-05-10T04:11:40.694Z,100852.44
2023-05-10T04:14:07.863Z,100860.84
2023-05-10T04:16:35.155Z,100857.66
2023-05-10T04:19:03.785Z,100856.38
2023-05-10T04:21:31.004Z,100855.09
2023-05-10T04:23:59.556Z,100847.03
2023-05-10T04:26:26.804Z,100849.94
2023-05-10T04:28:56.527Z,100854.50
2023-05-10T04:31:23.843Z,100855.34
2023-05-10T04:33:51.590Z,100859.72
2023-05-10T04:36:20.423Z,100857.28
2023-05-10T04:38:48.701Z,100853.63
2023-05-10T04:41:15.990Z,100858.97
2023-05-10T04:43:43.290Z,100855.41
2023-05-10T04:46:10.552Z,100853.50
2023-05-10T04:48:37.751Z,100847.63
2023-05-10T04:51:05.107Z,100851.44
2023-05-10T04:53:33.835Z,100851.69
2023-05-10T04:56:01.079Z,100849.31
2023-05-10T04:58:28.223Z,100854.19
2023-05-10T05:00:55.378Z,100848.09
2023-05-10T05:03:22.685Z,100847.94
2023-05-10T05:05:49.974Z,100846.00
2023-05-10T05:08:17.182Z,100846.53
2023-05-10T05:10:45.954Z,100847.69
2023-05-10T05:13:13.738Z,100847.34
2023-05-10T05:15:40.977Z,100848.69
2023-05-10T05:18:08.322Z,100844.03
2023-05-10T05:20:35.934Z,100849.69
2023-05-10T05:23:03.197Z,100847.53
2023-05-10T05:25:30.496Z,100844.38
2023-05-10T05:27:59.158Z,100836.69
2023-05-10T05:30:27.480Z,100843.53
2023-05-10T05:32:54.808Z,100843.53
2023-05-10T05:35:22.038Z,100840.91
2023-05-10T05:37:49.304Z,100839.03
2023-05-10T05:40:17.992Z,100834.38
2023-05-10T05:42:45.292Z,100835.69
2023-05-10T05:45:14.058Z,100830.03
2023-05-10T05:47:42.090Z,100832.22
2023-05-10T05:50:10.833Z,100829.75
2023-05-10T05:52:38.113Z,100830.34
2023-05-10T05:55:05.896Z,100827.31
2023-05-10T05:57:33.085Z,100825.31
2023-05-10T06:00:00.292Z,100823.56
2023-05-10T06:02:28.978Z,100827.44
2023-05-10T06:04:56.183Z,100828.88
2023-05-10T06:07:23.372Z,100834.97
2023-05-10T06:09:50.889Z,100822.84
2023-05-10T06:12:18.166Z,100834.09
2023-05-10T06:14:45.624Z,100826.16
2023-05-10T06:17:13.225Z,100830.13
2023-05-10T06:19:41.840Z,100826.56
2023-05-10T06:22:10.118Z,100826.81
2023-05-10T06:24:37.693Z,100829.59
2023-05-10T06:27:04.890Z,100823.59
2023-05-10T06:29:33.652Z,100819.84
2023-05-10T06:32:00.909Z,100830.19
2023-05-10T06:34:28.141Z,100833.00
2023-05-10T06:36:56.730Z,100831.47
2023-05-10T06:39:25.246Z,100832.31
2023-05-10T06:41:53.700Z,100839.50
2023-05-10T06:44:20.958Z,100830.16
2023-05-10T06:46:48.223Z,100831.41
2023-05-10T06:49:15.570Z,100824.50
2023-05-10T06:51:42.990Z,100829.72
2023-05-10T06:54:11.584Z,100833.19
2023-05-10T06:56:39.064Z,100831.22
2023-05-10T06:59:06.371Z,100823.28
2023-05-10T07:01:33.655Z,100819.19
2023-05-10T07:04:00.935Z,100825.91
2023-05-10T07:06:33.537Z,100829.78
2023-05-10T07:09:01.436Z,100829.09
2023-05-10T07:11:30.100Z,100832.72
2023-05-10T07:13:57.332Z,100818.00
2023-05-10T07:16:24.735Z,100827.53
2023-05-10T07:18:51.983Z,100819.31
2023-05-10T07:21:19.281Z,100824.63
2023-05-10T07:23:46.700Z,100822.84
2023-05-10T07:26:13.954Z,100824.50
2023-05-10T07:28:43.049Z,100822.34
2023-05-10T07:31:10.343Z,100824.16
2023-05-10T07:33:37.616Z,100816.94
2023-05-10T07:36:05.021Z,100818.78
2023-05-10T07:38:32.901Z,100821.47
2023-05-10T07:41:00.127Z,100819.97
2023-05-10T07:43:27.300Z,100821.06
2023-05-10T07:45:56.441Z,100826.69
2023-05-10T07:48:23.694Z,100818.75
2023-05-10T07:50:50.882Z,100822.53
2023-05-10T07:53:18.273Z,100815.97
2023-05-10T07:55:51.344Z,100818.28
2023-05-10T07:58:18.688Z,100807.50
2023-05-10T08:00:45.938Z,100809.84
2023-05-10T08:03:14.957Z,100809.19
2023-05-10T08:05:42.781Z,100809.69
2023-05-10T08:08:09.776Z,100811.63
2023-05-10T08:10:36.887Z,100812.59
2023-05-10T08:13:04.112Z,100808.97
2023-05-10T08:15:31.335Z,100806.22
2023-05-10T08:17:58.647Z,100819.50
2023-05-10T08:20:27.477Z,100822.47
2023-05-10T08:22:54.778Z,100820.06
2023-05-10T08:25:22.022Z,100816.56
2023-05-10T08:27:49.552Z,100813.03
2023-05-10T08:30:16.796Z,100816.03
2023-05-10T08:32:44.018Z,100813.13
2023-05-10T08:35:11.494Z,100807.88
2023-05-10T08:37:40.184Z,100810.22
2023-05-10T08:40:09.527Z,100813.13
2023-05-10T08:42:39.356Z,100819.75
2023-05-10T08:45:08.689Z,100809.38
2023-05-10T08:47:38.465Z,100811.66
2023-05-10T08:50:07.979Z,100808.88
2023-05-10T08:52:39.155Z,100803.66
2023-05-10T08:55:08.459Z,100805.00
2023-05-10T08:57:36.871Z,100818.44
2023-05-10T09:00:05.132Z,100819.28
2023-05-10T09:02:32.487Z,100821.84
2023-05-10T09:05:00.022Z,100812.25
2023-05-10T09:07:28.330Z,100815.41
2023-05-10T09:09:55.776Z,100805.59
2023-05-10T09:12:24.380Z,100819.53
2023-05-10T09:14:53.025Z,100818.94
2023-05-10T09:17:20.542Z,100820.34
2023-05-10T09:19:47.774Z,100815.72
2023-05-10T09:22:15.055Z,100816.28
2023-05-10T09:24:44.357Z,100822.94
2023-05-10T09:27:11.588Z,100814.66
2023-05-10T09:29:43.677Z,100825.13
2023-05-10T09:32:13.810Z,100822.72
2023-05-10T09:34:43.529Z,100819.44
2023-05-10T09:37:10.840Z,100818.94
2023-05-10T09:39:38.469Z,100814.34
2023-05-10T09:42:07.555Z,100816.16
2023-05-10T09:44:38.089Z,100818.19
2023-05-10T09:47:07.138Z,100809.97
2023-05-10T09:49:35.183Z,100817.81
2023-05-10T09:52:04.399Z,100819.50
2023-05-10T09:54:32.434Z,100825.31
2023-05-10T09:57:01.058Z,100815.31
2023-05-10T09:59:29.393Z,100817.25
2023-05-10T10:02:00.817Z,100816.38
2023-05-10T10:04:29.683Z,100827.81
2023-05-10T10:07:01.600Z,100828.06
2023-05-10T10:09:30.200Z,100818.63
2023-05-10T10:11:57.650Z,100815.94
2023-05-10T10:14:25.399Z,100812.50
2023-05-10T10:17:06.553Z,100821.72
2023-05-10T10:19:37.278Z,100802.84
2023-05-10T10:22:07.639Z,100808.41
2023-05-10T10:24:35.002Z,100806.00
2023-05-10T10:27:09.890Z,100803.97
2023-05-10T10:29:45.383Z,100804.81
2023-05-10T10:32:23.336Z,100799.53
2023-05-10T10:34:52.725Z,100803.69
2023-05-10T10:37:20.254Z,100796.69
2023-05-10T10:39:49.436Z,100795.94
2023-05-10T10:42:44.891Z,100792.63
2023-05-10T10:45:13.442Z,100795.59
2023-05-10T10:47:40.755Z,100790.50
2023-05-10T10:50:11.497Z,100809.75
2023-05-10T10:52:39.345Z,100802.06
2023-05-10T10:55:08.185Z,100799.88
2023-05-10T10:57:46.899Z,100796.34
2023-05-10T11:00:38.929Z,100800.47
2023-05-10T11:03:08.326Z,100804.56
2023-05-10T11:05:39.854Z,100797.56
2023-05-10T11:08:13.107Z,100795.53
2023-05-10T11:10:41.477Z,100804.25
2023-05-10T11:13:10.072Z,100793.56
2023-05-10T11:15:38.971Z,100794.13
2023-05-10T11:18:19.347Z,100791.47
2023-05-10T11:20:53.223Z,100801.28
2023-05-10T11:23:20.443Z,100786.94
2023-05-10T11:25:48.466Z,100767.91
2023-05-10T11:28:20.852Z,100788.34
2023-05-10T11:30:50.577Z,100795.59
2023-05-10T11:33:19.164Z,100792.59
2023-05-10T11:35:48.138Z,100793.59
2023-05-10T11:38:16.903Z,100792.34
2023-05-10T11:40:44.487Z,100781.72
2023-05-10T11:43:12.056Z,100785.44
2023-05-10T11:45:42.154Z,100780.53
2023-05-10T11:48:09.476Z,100777.34
2023-05-10T11:50:36.517Z,100780.78
2023-05-10T11:53:03.651Z,100786.25
2023-05-10T11:55:34.885Z,100775.63
2023-05-10T11:58:02.680Z,100787.25
2023-05-10T12:00:31.997Z,100786.91
2023-05-10T12:02:59.583Z,100783.16
2023-05-10T12:05:27.430Z,100788.59
2023-05-10T12:08:11.865Z,100788.94
2023-05-10T12:10:40.948Z,100792.75
2023-05-10T12:13:13.453Z,100795.31
2023-05-10T12:15:40.783Z,100791.03
2023-05-10T12:18:09.024Z,100789.91
2023-05-10T12:20:36.619Z,100791.63
2023-05-10T12:23:05.252Z,100797.06
2023-05-10T12:25:33.590Z,100791.31
2023-05-10T12:28:05.724Z,100792.47
2023-05-10T12:30:34.920Z,100801.13
2023-05-10T12:33:03.923Z,100803.41
2023-05-10T12:35:32.084Z,100789.88
2023-05-10T12:37:59.691Z,100788.78
2023-05-10T12:40:26.882Z,100793.44
2023-05-10T12:42:55.108Z,100790.59
2023-05-10T12:45:23.754Z,100792.09
2023-05-10T12:47:50.873Z,100807.41
2023-05-10T12:50:18.145Z,100802.16
2023-05-10T12:52:45.718Z,100800.00
2023-05-10T12:55:14.619Z,100806.78
2023-05-10T12:57:41.883Z,100797.16
2023-05-10T13:00:10.128Z,100806.94
2023-05-10T13:02:39.028Z,100806.41
2023-05-10T13:05:07.323Z,100800.69
2023-05-10T13:07:34.551Z,100807.81
2023-05-10T13:10:01.997Z,100804.22
2023-05-10T13:12:29.883Z,100794.63
2023-05-10T13:14:57.220Z,100795.28
2023-05-10T13:17:25.507Z,100794.13
2023-05-10T13:19:54.281Z,100803.16
2023-05-10T13:22:32.571Z,100788.44
2023-05-10T13:25:07.197Z,100791.00
2023-05-10T13:27:34.443Z,100790.75
2023-05-10T13:30:02.345Z,100786.56
2023-05-10T13:32:30.057Z,100787.84
2023-05-10T13:34:58.907Z,100786.81
2023-05-10T13:37:26.189Z,100774.28
2023-05-10T13:39:53.423Z,100776.66
2023-05-10T13:42:23.356Z,100770.97
2023-05-10T13:44:50.684Z,100779.88
2023-05-10T13:47:17.757Z,100778.78
2023-05-10T13:49:45.385Z,100778.56
2023-05-10T13:52:14.280Z,100777.88
2023-05-10T13:54:41.963Z,100786.16
2023-05-10T13:57:09.284Z,100780.56
2023-05-10T13:59:38.566Z,100785.88
2023-05-10T14:02:05.915Z,100783.31
2023-05-10T14:04:33.516Z,100778.44
2023-05-10T14:07:00.736Z,100779.84
2023-05-10T14:09:30.346Z,100775.84
2023-05-10T14:11:57.616Z,100777.97
2023-05-10T14:14:25.097Z,100774.88
2023-05-10T14:16:52.162Z,100776.72
2023-05-10T14:19:19.542Z,100767.50
2023-05-10T14:21:46.565Z,100768.69
2023-05-10T14:24:13.826Z,100774.66
2023-05-10T14:26:42.207Z,100766.34
2023-05-10T14:29:11.500Z,100766.09
2023-05-10T14:31:39.750Z,100774.38
2023-05-10T14:34:07.027Z,100776.69
2023-05-10T14:36:34.213Z,100771.59
2023-05-10T14:39:01.496Z,100765.44
2023-05-10T14:41:28.920Z,100758.63
2023-05-10T14:43:57.387Z,100762.13
2023-05-10T14:46:24.689Z,100755.53
2023-05-10T14:48:51.772Z,100763.19
2023-05-10T14:51:18.952Z,100769.44
2023-05-10T14:53:48.487Z,100760.81
2023-05-10T14:56:16.054Z,100763.00
2023-05-10T14:58:43.230Z,100763.38
2023-05-10T15:01:12.040Z,100761.72
2023-05-10T15:03:39.965Z,100769.34
2023-05-10T15:06:09.393Z,100769.06
2023-05-10T15:08:37.898Z,100773.28
2023-05-10T15:11:05.293Z,100772.56
2023-05-10T15:13:32.280Z,100778.97
2023-05-10T15:15:59.696Z,100774.72
2023-05-10T15:18:28.529Z,100780.47
2023-05-10T15:20:55.788Z,100779.88
2023-05-10T15:23:23.295Z,100779.28
2023-05-10T15:25:50.314Z,100776.66
2023-05-10T15:28:17.698Z,100779.34
2023-05-10T15:30:44.715Z,100776.59
2023-05-10T15:33:11.834Z,100779.22
2023-05-10T15:35:40.645Z,100774.25
2023-05-10T15:38:07.882Z,100781.81
2023-05-10T15:40:36.276Z,100777.06
2023-05-10T15:43:03.471Z,100775.41
2023-05-10T15:45:31.208Z,100779.06
2023-05-10T15:47:59.601Z,100777.44
2023-05-10T15:50:27.150Z,100770.19
2023-05-10T15:52:56.931Z,100779.09
2023-05-10T15:55:24.158Z,100783.31
2023-05-10T15:57:52.543Z,100784.59
2023-05-10T16:00:20.906Z,100781.88
2023-05-10T16:02:48.312Z,100777.44
2023-05-10T16:05:15.573Z,100791.34
2023-05-10T16:07:43.138Z,100783.53
2023-05-10T16:10:12.620Z,100783.41
2023-05-10T16:12:40.389Z,100789.19
2023-05-10T16:15:09.550Z,100786.69
2023-05-10T16:17:37.390Z,100787.38
2023-05-10T16:20:06.961Z,100799.16
2023-05-10T16:22:35.738Z,100787.75
2023-05-10T16:25:03.044Z,100790.16
2023-05-10T16:29:53.377Z,100799.31
2023-05-10T16:32:20.607Z,100808.63
2023-05-10T16:34:47.981Z,100805.34
2023-05-10T16:37:15.209Z,100803.88
2023-05-10T16:39:42.687Z,100818.28
2023-05-10T16:42:09.926Z,100821.53
2023-05-10T16:44:37.395Z,100824.66
2023-05-10T16:47:06.486Z,100821.88
2023-05-10T16:49:35.205Z,100837.22
2023-05-10T16:52:02.447Z,100836.00
2023-05-10T16:54:30.109Z,100841.41
2023-05-10T16:56:57.372Z,100838.44
2023-05-10T16:59:25.925Z,100843.69
2023-05-10T17:01:53.444Z,100849.50
2023-05-10T17:04:21.997Z,100845.84
2023-05-10T17:06:49.237Z,100848.31
2023-05-10T17:09:16.440Z,100853.28
2023-05-10T17:11:43.641Z,100853.31
2023-05-10T17:14:11.971Z,100857.63
2023-05-10T17:16:39.329Z,100856.59
2023-05-10T17:19:06.634Z,100863.22
2023-05-10T17:21:35.331Z,100852.00
2023-05-10T17:24:02.825Z,100859.25
2023-05-10T17:26:30.167Z,100862.75
2023-05-10T17:28:57.799Z,100866.44
2023-05-10T17:31:25.078Z,100864.34
2023-05-10T17:33:52.430Z,100884.59
2023-05-10T17:36:19.666Z,100876.31
2023-05-10T17:38:48.238Z,100881.47
2023-05-10T17:41:15.442Z,100884.97
2023-05-10T17:43:42.767Z,100885.75
2023-05-10T17:46:10.388Z,100881.16
2023-05-10T17:48:37.637Z,100889.03
2023-05-10T17:51:05.100Z,100893.94
2023-05-10T17:53:32.408Z,100892.66
2023-05-10T17:56:01.082Z,100898.44
2023-05-10T17:58:28.453Z,100893.84
2023-05-10T18:00:56.138Z,100897.59
2023-05-10T18:03:23.680Z,100895.47
2023-05-10T18:05:51.292Z,100909.09
2023-05-10T18:08:18.800Z,100903.50
2023-05-10T18:10:46.004Z,100902.59
2023-05-10T18:13:14.646Z,100915.19
2023-05-10T18:15:41.838Z,100913.28
2023-05-10T18:18:09.130Z,100915.78
2023-05-10T18:20:36.583Z,100919.19
2023-05-10T18:23:03.757Z,100926.16
2023-05-10T18:25:31.366Z,100930.63
2023-05-10T18:28:01.978Z,100932.72
2023-05-10T18:30:31.671Z,100929.97
2023-05-10T18:32:58.994Z,100925.16
2023-05-10T18:35:27.565Z,100928.50
2023-05-10T18:37:54.829Z,100937.03
2023-05-10T18:40:22.087Z,100934.22
2023-05-10T18:42:49.302Z,100943.13
2023-05-10T18:45:16.847Z,100942.47
2023-05-10T18:47:45.697Z,100958.81
2023-05-10T18:50:12.909Z,100952.75
2023-05-10T18:52:40.130Z,100956.34
2023-05-10T18:55:08.251Z,100957.72
2023-05-10T18:57:35.500Z,100962.06
2023-05-10T19:00:02.781Z,100965.31
2023-05-10T19:02:30.368Z,100968.66
2023-05-10T19:04:59.093Z,100974.56
2023-05-10T19:07:26.298Z,100979.47
2023-05-10T19:09:53.649Z,100983.28
2023-05-10T19:12:21.195Z,100982.53
2023-05-10T19:14:48.436Z,100983.25
2023-05-10T19:17:15.993Z,100985.38
2023-05-10T19:19:43.560Z,100991.94
2023-05-10T19:22:12.627Z,100991.78
2023-05-10T19:24:39.854Z,100988.81
2023-05-10T19:27:07.167Z,101000.78
2023-05-10T19:29:34.540Z,100993.88
2023-05-10T19:32:01.869Z,101005.59
2023-05-10T19:34:29.190Z,100998.00
2023-05-10T19:36:58.670Z,101009.81
2023-05-10T19:39:28.120Z,101006.25
2023-05-10T19:41:55.889Z,101002.31
2023-05-10T19:44:24.650Z,101003.91
2023-05-10T19:46:52.877Z,101010.38
2023-05-10T19:49:20.614Z,101014.72
2023-05-10T19:51:48.134Z,101014.13
2023-05-10T19:54:15.364Z,101015.03
2023-05-10T19:56:43.986Z,101024.25
2023-05-10T19:59:11.260Z,101020.59
2023-05-10T20:01:38.580Z,101014.66
2023-05-10T20:04:07.398Z,101022.13
2023-05-10T20:06:34.650Z,101020.78
2023-05-10T20:09:01.839Z,101019.03
2023-05-10T20:11:29.104Z,101025.84
2023-05-10T20:13:57.729Z,101034.72
2023-05-10T20:16:26.771Z,101031.81
2023-05-10T20:18:54.502Z,101036.41
2023-05-10T20:21:21.889Z,101028.78
2023-05-10T20:23:49.650Z,101036.28
2023-05-10T20:26:16.857Z,101036.63
2023-05-10T20:28:44.087Z,101035.63
2023-05-10T20:31:12.970Z,101036.63
2023-05-10T20:33:40.210Z,101041.66
2023-05-10T20:36:07.530Z,101043.97
2023-05-10T20:38:34.807Z,101040.50
2023-05-10T20:41:02.083Z,101040.19
2023-05-10T20:43:29.575Z,101042.53
2023-05-10T20:45:56.834Z,101039.69
2023-05-10T20:48:25.485Z,101045.22
2023-05-10T20:50:52.726Z,101042.72
2023-05-10T20:53:20.017Z,101051.72
2023-05-10T20:55:47.241Z,101050.41
2023-05-10T20:58:14.680Z,101046.38
2023-05-10T21:00:42.189Z,101037.34
2023-05-10T21:03:09.438Z,101052.06
2023-05-10T21:05:38.066Z,101041.06
2023-05-10T21:08:06.465Z,101050.06
2023-05-10T21:10:33.713Z,101051.88
2023-05-10T21:13:00.929Z,101057.88
2023-05-10T21:15:28.138Z,101052.38
2023-05-10T21:17:55.444Z,101046.88
2023-05-10T21:20:22.723Z,101058.22
2023-05-10T21:22:51.317Z,101053.22
2023-05-10T21:25:18.940Z,101052.53
2023-05-10T21:27:46.145Z,101057.22
2023-05-10T21:30:13.663Z,101058.88
2023-05-10T21:32:41.237Z,101061.16
2023-05-10T21:35:09.141Z,101061.31
2023-05-10T21:37:36.191Z,101064.34
2023-05-10T21:40:05.747Z,101058.16
2023-05-10T21:42:32.972Z,101063.34
2023-05-10T21:45:00.189Z,101064.00
2023-05-10T21:47:27.747Z,101066.59
2023-05-10T21:49:55.263Z,101065.06
2023-05-10T21:52:22.741Z,101067.25
2023-05-10T21:54:50.018Z,101073.28
2023-05-10T21:57:18.655Z,101068.91
2023-05-10T21:59:45.846Z,101081.34
2023-05-10T22:02:14.097Z,101075.84
2023-05-10T22:04:41.616Z,101075.38
2023-05-10T22:07:09.427Z,101073.88
2023-05-10T22:09:36.670Z,101081.81
2023-05-10T22:12:04.227Z,101078.72
2023-05-10T22:14:34.071Z,101078.09
2023-05-10T22:17:01.433Z,101080.41
2023-05-10T22:19:28.714Z,101077.28
2023-05-10T22:21:55.922Z,101079.59
2023-05-10T22:24:23.475Z,101082.31
2023-05-10T22:26:53.369Z,101078.13
2023-05-10T22:29:21.993Z,101081.31
2023-05-10T22:31:54.192Z,101075.09
2023-05-10T22:34:21.740Z,101085.59
2023-05-10T22:36:48.954Z,101082.41
2023-05-10T22:39:16.862Z,101086.88
2023-05-10T22:41:44.057Z,101084.69
2023-05-10T22:44:12.407Z,101084.91
2023-05-10T22:46:39.730Z,101088.19
2023-05-10T22:49:09.591Z,101088.75
2023-05-10T22:51:36.992Z,101083.97
2023-05-10T22:54:04.347Z,101082.53
2023-05-10T22:56:32.942Z,101088.34
2023-05-10T22:59:00.267Z,101087.09
2023-05-10T23:01:27.582Z,101090.81
2023-05-10T23:03:55.855Z,101088.03
2023-05-10T23:06:24.480Z,101093.75
2023-05-10T23:08:51.797Z,101088.56
2023-05-10T23:11:21.560Z,101083.97
2023-05-10T23:13:48.784Z,101093.88
2023-05-10T23:16:16.357Z,101086.19
2023-05-10T23:18:43.671Z,101092.97
2023-05-10T23:21:11.223Z,101089.34
2023-05-10T23:23:40.370Z,101089.47
2023-05-10T23:26:07.622Z,101088.25
2023-05-10T23:28:34.925Z,101090.56
2023-05-10T23:31:02.180Z,101097.41
2023-05-10T23:33:29.614Z,101093.28
2023-05-10T23:35:56.849Z,101088.88
2023-05-10T23:38:24.126Z,101092.84
2023-05-10T23:40:52.696Z,101093.44
2023-05-10T23:43:19.871Z,101087.31
2023-05-10T23:45:53.022Z,101090.31
2023-05-10T23:48:20.654Z,101088.41
2023-05-10T23:50:50.549Z,101083.03
2023-05-10T23:53:17.844Z,101093.03
2023-05-10T23:55:45.510Z,101087.44
2023-05-10T23:58:15.465Z,101084.75
